Accueil
METAR-TAF:

METAR-TAF

Aéroports :

Milan, Italie

Aéroport de Milan Malpensa

latitude: 45-37N, longitude: 008-44E, altitude: 234 m

Observation

Le bulletin a été fait il y a 21 minutes, à 07:50 UTC
Vent 7 kt de nord-ouest, variant entre ouest/nord-ouest et nord
Température 16°C
Humidité 29%
Pression 1015 hPa
Visibilité 10 km ou plus
pas de nuages en-dessous de 1500 mètres et pas de cumulonimbus.

METAR: LIMC 230750Z 32007KT 290V010 CAVOK 16/M02 Q1015 NOSIG

Heure: 10:11 (08:11 UTC)

Prévision

Le bulletin a été fait il y a 3 heures et 11 minutes, à 05:00 UTC
Prévision valable du 23 à 06 UTC au 24 à 12 UTC
Vent 7 kt de nord/nord-est
Visibilité 10 km ou plus
pas de nuages en-dessous de 1500 mètres et pas de cumulonimbus.

TAF: LIMC 230500Z 2306/2412 03007KT CAVOK

Observations et prévisions météorologiques de plus de 4000 aéroports (messages METAR et TAF).

Les stations disponibles sont représentées par des disques jaunes et rouges sur la carte.

Passer la souris dessus pour voir le nom de la station.

Cliquer dessus pour voir les observations et prévisions météorologiques.

Pour changer de carte: cliquez sur les boutons verts avec une croix noire pour zoomer, sur le bouton vert avec un tiret pour effectuer un zoom arrière, ou sur les flèches vertes pour les cartes adjacentes.


METAR-TAF: